sensor_id;sensor_type;location;lat;lon;timestamp;pressure;altitude;pressure_sealevel;temperature;humidity
7768;BME280;3928;42.626;23.382;2023-03-26T00:01:47;93698.38;;;13.59;65.71
7768;BME280;3928;42.626;23.382;2023-03-26T00:04:14;93690.16;;;13.26;66.47
7768;BME280;3928;42.626;23.382;2023-03-26T00:06:44;93690.66;;;13.12;67.26
7768;BME280;3928;42.626;23.382;2023-03-26T00:09:14;93697.31;;;12.94;67.95
7768;BME280;3928;42.626;23.382;2023-03-26T00:11:41;93702.84;;;12.83;69.09
7768;BME280;3928;42.626;23.382;2023-03-26T00:14:09;93704.72;;;12.78;68.93
7768;BME280;3928;42.626;23.382;2023-03-26T00:16:39;93709.75;;;13.06;68.30
7768;BME280;3928;42.626;23.382;2023-03-26T00:19:07;93704.81;;;13.00;68.48
7768;BME280;3928;42.626;23.382;2023-03-26T00:21:34;93653.72;;;12.88;67.98
7768;BME280;3928;42.626;23.382;2023-03-26T00:24:03;93685.28;;;12.95;68.71
7768;BME280;3928;42.626;23.382;2023-03-26T00:26:31;93672.50;;;12.92;68.53
7768;BME280;3928;42.626;23.382;2023-03-26T00:28:58;93668.25;;;13.14;68.00
7768;BME280;3928;42.626;23.382;2023-03-26T00:31:26;93656.75;;;12.99;67.91
7768;BME280;3928;42.626;23.382;2023-03-26T00:33:54;93562.06;;;12.61;67.78
7768;BME280;3928;42.626;23.382;2023-03-26T00:36:23;93645.19;;;13.11;67.60
7768;BME280;3928;42.626;23.382;2023-03-26T00:38:51;93644.56;;;13.04;67.71
7768;BME280;3928;42.626;23.382;2023-03-26T00:41:19;93608.53;;;12.81;67.70
7768;BME280;3928;42.626;23.382;2023-03-26T00:43:51;93629.66;;;13.12;67.43
7768;BME280;3928;42.626;23.382;2023-03-26T00:46:21;93579.63;;;12.96;66.54
7768;BME280;3928;42.626;23.382;2023-03-26T00:48:48;93622.13;;;13.31;65.73
7768;BME280;3928;42.626;23.382;2023-03-26T00:51:18;93584.94;;;13.15;65.54
7768;BME280;3928;42.626;23.382;2023-03-26T00:53:47;93634.28;;;13.50;64.96
7768;BME280;3928;42.626;23.382;2023-03-26T00:56:14;93619.00;;;13.45;64.43
7768;BME280;3928;42.626;23.382;2023-03-26T00:58:42;93606.41;;;13.37;64.04
7768;BME280;3928;42.626;23.382;2023-03-26T01:01:10;93630.16;;;13.45;63.74
7768;BME280;3928;42.626;23.382;2023-03-26T01:03:40;93632.16;;;13.39;64.04
7768;BME280;3928;42.626;23.382;2023-03-26T01:06:10;93633.97;;;13.35;64.30
7768;BME280;3928;42.626;23.382;2023-03-26T01:08:41;93634.56;;;13.20;64.38
7768;BME280;3928;42.626;23.382;2023-03-26T01:11:12;93606.59;;;13.09;63.93
7768;BME280;3928;42.626;23.382;2023-03-26T01:13:42;93631.81;;;13.25;63.66
7768;BME280;3928;42.626;23.382;2023-03-26T01:16:17;93638.34;;;13.33;63.21
7768;BME280;3928;42.626;23.382;2023-03-26T01:18:46;93634.16;;;13.31;63.35
7768;BME280;3928;42.626;23.382;2023-03-26T01:21:18;93633.91;;;13.13;63.16
7768;BME280;3928;42.626;23.382;2023-03-26T01:23:58;93640.97;;;13.08;63.57
7768;BME280;3928;42.626;23.382;2023-03-26T01:26:37;93637.00;;;13.00;63.81
7768;BME280;3928;42.626;23.382;2023-03-26T01:29:13;93647.06;;;13.31;63.52
7768;BME280;3928;42.626;23.382;2023-03-26T01:31:51;93648.13;;;13.00;64.50
7768;BME280;3928;42.626;23.382;2023-03-26T01:34:27;93646.31;;;13.04;64.38
7768;BME280;3928;42.626;23.382;2023-03-26T01:37:05;93661.59;;;13.08;64.59
7768;BME280;3928;42.626;23.382;2023-03-26T01:39:36;93662.59;;;13.04;65.25
7768;BME280;3928;42.626;23.382;2023-03-26T01:42:10;93661.66;;;13.07;65.29
7768;BME280;3928;42.626;23.382;2023-03-26T01:44:44;93670.28;;;13.06;65.28
7768;BME280;3928;42.626;23.382;2023-03-26T01:47:12;93663.66;;;12.99;66.14
7768;BME280;3928;42.626;23.382;2023-03-26T01:49:39;93670.16;;;13.09;66.28
7768;BME280;3928;42.626;23.382;2023-03-26T01:52:13;93675.19;;;13.12;66.47
7768;BME280;3928;42.626;23.382;2023-03-26T01:54:42;93682.81;;;13.15;66.14
7768;BME280;3928;42.626;23.382;2023-03-26T01:57:17;93674.13;;;13.19;66.09
7768;BME280;3928;42.626;23.382;2023-03-26T02:00:02;93683.53;;;13.20;66.34
7768;BME280;3928;42.626;23.382;2023-03-26T02:02:43;93678.25;;;13.23;66.15
7768;BME280;3928;42.626;23.382;2023-03-26T02:05:18;93658.06;;;13.11;66.47
7768;BME280;3928;42.626;23.382;2023-03-26T02:07:49;93675.47;;;13.29;66.78
7768;BME280;3928;42.626;23.382;2023-03-26T02:10:23;93679.78;;;13.29;66.69
7768;BME280;3928;42.626;23.382;2023-03-26T02:12:52;93666.19;;;13.24;66.83
7768;BME280;3928;42.626;23.382;2023-03-26T02:15:19;93685.28;;;13.18;67.29
7768;BME280;3928;42.626;23.382;2023-03-26T02:17:46;93686.34;;;13.36;67.11
7768;BME280;3928;42.626;23.382;2023-03-26T02:20:15;93670.31;;;13.29;66.61
7768;BME280;3928;42.626;23.382;2023-03-26T02:22:43;93677.50;;;13.43;66.58
7768;BME280;3928;42.626;23.382;2023-03-26T02:25:13;93677.69;;;13.38;66.58
7768;BME280;3928;42.626;23.382;2023-03-26T02:27:42;93660.13;;;13.48;66.40
7768;BME280;3928;42.626;23.382;2023-03-26T02:30:12;93655.94;;;13.45;65.96
7768;BME280;3928;42.626;23.382;2023-03-26T02:32:39;93672.16;;;13.48;65.59
7768;BME280;3928;42.626;23.382;2023-03-26T02:35:09;93672.94;;;13.28;66.19
7768;BME280;3928;42.626;23.382;2023-03-26T02:37:36;93665.66;;;13.39;65.93
7768;BME280;3928;42.626;23.382;2023-03-26T02:40:03;93674.50;;;13.32;66.15
7768;BME280;3928;42.626;23.382;2023-03-26T02:42:35;93674.00;;;13.22;66.00
7768;BME280;3928;42.626;23.382;2023-03-26T02:45:05;93674.72;;;13.26;65.78
7768;BME280;3928;42.626;23.382;2023-03-26T02:47:32;93665.38;;;12.98;66.54
7768;BME280;3928;42.626;23.382;2023-03-26T02:49:59;93676.03;;;13.12;66.19
7768;BME280;3928;42.626;23.382;2023-03-26T02:52:29;93681.69;;;12.99;67.23
7768;BME280;3928;42.626;23.382;2023-03-26T02:54:56;93681.78;;;12.96;67.65
7768;BME280;3928;42.626;23.382;2023-03-26T02:57:23;93676.53;;;12.99;67.80
7768;BME280;3928;42.626;23.382;2023-03-26T02:59:50;93686.91;;;12.72;69.00
7768;BME280;3928;42.626;23.382;2023-03-26T03:02:18;93686.91;;;12.72;69.29
7768;BME280;3928;42.626;23.382;2023-03-26T03:04:47;93693.09;;;12.67;69.46
7768;BME280;3928;42.626;23.382;2023-03-26T03:07:13;93697.84;;;12.54;69.88
7768;BME280;3928;42.626;23.382;2023-03-26T03:09:40;93687.16;;;12.40;70.45
7768;BME280;3928;42.626;23.382;2023-03-26T03:12:07;93699.53;;;12.28;70.42
7768;BME280;3928;42.626;23.382;2023-03-26T03:14:34;93700.59;;;12.23;70.38
7768;BME280;3928;42.626;23.382;2023-03-26T03:17:02;93705.88;;;12.18;70.49
7768;BME280;3928;42.626;23.382;2023-03-26T03:19:30;93695.34;;;11.99;71.50
7768;BME280;3928;42.626;23.382;2023-03-26T03:21:57;93706.81;;;11.89;72.17
7768;BME280;3928;42.626;23.382;2023-03-26T03:24:24;93707.09;;;11.80;73.21
7768;BME280;3928;42.626;23.382;2023-03-26T03:26:51;93698.88;;;11.97;72.27
7768;BME280;3928;42.626;23.382;2023-03-26T03:29:20;93710.84;;;12.24;71.07
7768;BME280;3928;42.626;23.382;2023-03-26T03:31:47;93709.22;;;12.22;71.26
7768;BME280;3928;42.626;23.382;2023-03-26T03:34:14;93724.19;;;12.09;71.48
7768;BME280;3928;42.626;23.382;2023-03-26T03:36:42;93723.53;;;12.03;72.36
7768;BME280;3928;42.626;23.382;2023-03-26T03:39:13;93730.34;;;11.76;73.40
7768;BME280;3928;42.626;23.382;2023-03-26T03:41:40;93724.31;;;11.77;73.79
7768;BME280;3928;42.626;23.382;2023-03-26T03:44:07;93720.34;;;11.66;73.72
7768;BME280;3928;42.626;23.382;2023-03-26T03:46:33;93723.91;;;11.62;74.50
7768;BME280;3928;42.626;23.382;2023-03-26T03:49:01;93724.25;;;11.80;73.79
7768;BME280;3928;42.626;23.382;2023-03-26T03:51:28;93718.28;;;11.78;73.84
7768;BME280;3928;42.626;23.382;2023-03-26T03:53:56;93727.00;;;11.44;75.00
7768;BME280;3928;42.626;23.382;2023-03-26T03:56:23;93728.38;;;11.56;74.82
7768;BME280;3928;42.626;23.382;2023-03-26T03:58:50;93716.78;;;11.70;73.87
7768;BME280;3928;42.626;23.382;2023-03-26T04:01:17;93728.22;;;11.90;73.55
7768;BME280;3928;42.626;23.382;2023-03-26T04:03:47;93729.88;;;11.63;74.07
7768;BME280;3928;42.626;23.382;2023-03-26T04:06:14;93724.84;;;11.58;74.82
7768;BME280;3928;42.626;23.382;2023-03-26T04:08:43;93726.88;;;11.77;73.59
7768;BME280;3928;42.626;23.382;2023-03-26T04:11:11;93731.56;;;11.64;74.12
7768;BME280;3928;42.626;23.382;2023-03-26T04:13:38;93723.25;;;11.85;73.15
7768;BME280;3928;42.626;23.382;2023-03-26T04:16:05;93745.75;;;12.05;72.41
7768;BME280;3928;42.626;23.382;2023-03-26T04:18:31;93751.34;;;12.18;71.71
7768;BME280;3928;42.626;23.382;2023-03-26T04:20:58;93753.53;;;12.30;71.38
7768;BME280;3928;42.626;23.382;2023-03-26T04:23:27;93768.03;;;12.33;70.70
7768;BME280;3928;42.626;23.382;2023-03-26T04:25:54;93782.66;;;12.30;70.87
7768;BME280;3928;42.626;23.382;2023-03-26T04:28:28;93776.94;;;12.22;71.19
7768;BME280;3928;42.626;23.382;2023-03-26T04:30:58;93784.09;;;12.13;71.84
7768;BME280;3928;42.626;23.382;2023-03-26T04:33:27;93769.41;;;12.16;71.04
7768;BME280;3928;42.626;23.382;2023-03-26T04:35:55;93804.31;;;12.51;70.36
7768;BME280;3928;42.626;23.382;2023-03-26T04:38:28;93797.91;;;12.63;69.81
7768;BME280;3928;42.626;23.382;2023-03-26T04:40:58;93807.03;;;12.47;69.99
7768;BME280;3928;42.626;23.382;2023-03-26T04:43:28;93805.06;;;12.55;70.07
7768;BME280;3928;42.626;23.382;2023-03-26T04:45:55;93821.41;;;12.52;70.13
7768;BME280;3928;42.626;23.382;2023-03-26T04:48:22;93817.03;;;12.56;69.83
7768;BME280;3928;42.626;23.382;2023-03-26T04:50:49;93821.97;;;12.62;69.49
7768;BME280;3928;42.626;23.382;2023-03-26T04:53:17;93789.16;;;12.42;69.41
7768;BME280;3928;42.626;23.382;2023-03-26T04:55:48;93810.63;;;12.41;69.56
7768;BME280;3928;42.626;23.382;2023-03-26T04:58:16;93816.41;;;12.21;70.51
7768;BME280;3928;42.626;23.382;2023-03-26T05:00:45;93823.66;;;12.37;70.25
7768;BME280;3928;42.626;23.382;2023-03-26T05:03:14;93823.50;;;12.41;69.80
7768;BME280;3928;42.626;23.382;2023-03-26T05:05:41;93821.75;;;12.43;69.47
7768;BME280;3928;42.626;23.382;2023-03-26T05:08:08;93816.31;;;12.24;69.15
7768;BME280;3928;42.626;23.382;2023-03-26T05:10:35;93823.03;;;12.28;68.87
7768;BME280;3928;42.626;23.382;2023-03-26T05:13:01;93824.91;;;12.23;68.37
7768;BME280;3928;42.626;23.382;2023-03-26T05:15:28;93826.22;;;12.37;68.11
7768;BME280;3928;42.626;23.382;2023-03-26T05:17:56;93838.56;;;12.25;66.94
7768;BME280;3928;42.626;23.382;2023-03-26T05:20:25;93831.59;;;12.29;66.37
7768;BME280;3928;42.626;23.382;2023-03-26T05:22:54;93835.63;;;12.38;66.37
7768;BME280;3928;42.626;23.382;2023-03-26T05:25:20;93844.41;;;12.58;65.27
7768;BME280;3928;42.626;23.382;2023-03-26T05:27:47;93846.03;;;12.61;64.80
7768;BME280;3928;42.626;23.382;2023-03-26T05:30:16;93848.06;;;12.51;64.78
7768;BME280;3928;42.626;23.382;2023-03-26T05:32:43;93854.03;;;12.52;64.40
7768;BME280;3928;42.626;23.382;2023-03-26T05:35:11;93844.97;;;12.67;64.45
7768;BME280;3928;42.626;23.382;2023-03-26T05:37:41;93853.75;;;12.61;64.73
7768;BME280;3928;42.626;23.382;2023-03-26T05:40:10;93840.88;;;12.61;64.81
7768;BME280;3928;42.626;23.382;2023-03-26T05:42:40;93848.66;;;12.59;65.47
7768;BME280;3928;42.626;23.382;2023-03-26T05:45:08;93839.38;;;12.55;65.59
7768;BME280;3928;42.626;23.382;2023-03-26T05:47:36;93842.84;;;12.53;65.69
7768;BME280;3928;42.626;23.382;2023-03-26T05:50:03;93842.16;;;12.48;64.99
7768;BME280;3928;42.626;23.382;2023-03-26T05:52:32;93804.19;;;12.28;65.11
7768;BME280;3928;42.626;23.382;2023-03-26T05:54:59;93853.69;;;12.91;64.29
7768;BME280;3928;42.626;23.382;2023-03-26T05:57:28;93867.53;;;12.86;64.65
7768;BME280;3928;42.626;23.382;2023-03-26T05:59:54;93858.50;;;13.00;63.68
7768;BME280;3928;42.626;23.382;2023-03-26T06:02:21;93857.16;;;13.14;63.50
7768;BME280;3928;42.626;23.382;2023-03-26T06:04:48;93826.97;;;13.18;63.15
7768;BME280;3928;42.626;23.382;2023-03-26T06:07:15;93845.66;;;13.50;62.12
7768;BME280;3928;42.626;23.382;2023-03-26T06:09:44;93844.47;;;13.35;61.91
7768;BME280;3928;42.626;23.382;2023-03-26T06:12:11;93825.91;;;13.25;61.21
7768;BME280;3928;42.626;23.382;2023-03-26T06:14:38;93858.88;;;13.40;60.77
7768;BME280;3928;42.626;23.382;2023-03-26T06:17:07;93836.16;;;13.52;61.01
7768;BME280;3928;42.626;23.382;2023-03-26T06:19:34;93833.59;;;13.75;60.65
7768;BME280;3928;42.626;23.382;2023-03-26T06:22:01;93836.22;;;13.73;60.28
7768;BME280;3928;42.626;23.382;2023-03-26T06:24:28;93842.63;;;13.87;59.38
7768;BME280;3928;42.626;23.382;2023-03-26T06:26:56;93853.53;;;13.93;57.31
7768;BME280;3928;42.626;23.382;2023-03-26T06:29:23;93848.66;;;14.09;56.04
7768;BME280;3928;42.626;23.382;2023-03-26T06:31:50;93847.25;;;14.24;54.46
7768;BME280;3928;42.626;23.382;2023-03-26T06:34:17;93770.28;;;13.43;55.90
7768;BME280;3928;42.626;23.382;2023-03-26T06:36:43;93846.56;;;13.95;55.40
7768;BME280;3928;42.626;23.382;2023-03-26T06:39:13;93835.03;;;14.05;55.64
7768;BME280;3928;42.626;23.382;2023-03-26T06:41:39;93841.06;;;14.28;53.63
7768;BME280;3928;42.626;23.382;2023-03-26T06:44:08;93837.81;;;14.46;52.81
7768;BME280;3928;42.626;23.382;2023-03-26T06:46:35;93848.59;;;14.34;52.78
7768;BME280;3928;42.626;23.382;2023-03-26T06:49:02;93848.78;;;14.28;52.90
7768;BME280;3928;42.626;23.382;2023-03-26T06:51:29;93846.47;;;14.44;52.58
7768;BME280;3928;42.626;23.382;2023-03-26T06:53:55;93847.81;;;14.76;52.24
7768;BME280;3928;42.626;23.382;2023-03-26T06:56:22;93862.41;;;14.77;52.41
7768;BME280;3928;42.626;23.382;2023-03-26T06:58:49;93861.41;;;15.01;52.46
7768;BME280;3928;42.626;23.382;2023-03-26T07:01:17;93871.97;;;15.37;50.79
7768;BME280;3928;42.626;23.382;2023-03-26T07:03:44;93869.81;;;15.69;49.03
7768;BME280;3928;42.626;23.382;2023-03-26T07:06:11;93870.50;;;15.72;46.42
7768;BME280;3928;42.626;23.382;2023-03-26T07:08:37;93864.69;;;15.88;46.26
7768;BME280;3928;42.626;23.382;2023-03-26T07:11:05;93868.63;;;16.15;45.33
7768;BME280;3928;42.626;23.382;2023-03-26T07:13:31;93880.59;;;16.36;43.95
7768;BME280;3928;42.626;23.382;2023-03-26T07:15:58;93844.97;;;16.42;43.90
7768;BME280;3928;42.626;23.382;2023-03-26T07:18:26;93865.88;;;16.75;44.18
7768;BME280;3928;42.626;23.382;2023-03-26T07:20:54;93867.22;;;16.83;44.19
7768;BME280;3928;42.626;23.382;2023-03-26T07:23:21;93859.09;;;16.72;43.87
7768;BME280;3928;42.626;23.382;2023-03-26T07:25:48;93870.84;;;16.42;43.82
7768;BME280;3928;42.626;23.382;2023-03-26T07:28:22;93849.19;;;16.25;44.13
7768;BME280;3928;42.626;23.382;2023-03-26T07:31:06;93869.03;;;16.44;42.95
7768;BME280;3928;42.626;23.382;2023-03-26T07:33:44;93838.53;;;16.13;44.29
7768;BME280;3928;42.626;23.382;2023-03-26T07:36:23;93848.47;;;16.22;43.66
7768;BME280;3928;42.626;23.382;2023-03-26T07:39:03;93850.13;;;16.60;44.76
7768;BME280;3928;42.626;23.382;2023-03-26T07:41:40;93856.69;;;16.86;42.45
7768;BME280;3928;42.626;23.382;2023-03-26T07:44:24;93850.75;;;17.02;42.33
7768;BME280;3928;42.626;23.382;2023-03-26T07:46:57;93845.75;;;17.33;42.71
7768;BME280;3928;42.626;23.382;2023-03-26T07:49:28;93850.78;;;17.71;46.36
7768;BME280;3928;42.626;23.382;2023-03-26T07:51:56;93849.88;;;18.05;42.56
7768;BME280;3928;42.626;23.382;2023-03-26T07:54:23;93834.81;;;18.27;41.71
7768;BME280;3928;42.626;23.382;2023-03-26T07:56:54;93849.56;;;18.27;41.63
7768;BME280;3928;42.626;23.382;2023-03-26T07:59:26;93848.66;;;18.59;38.91
7768;BME280;3928;42.626;23.382;2023-03-26T08:05:08;93851.94;;;19.24;38.81
7768;BME280;3928;42.626;23.382;2023-03-26T08:07:52;93845.69;;;19.43;37.22
7768;BME280;3928;42.626;23.382;2023-03-26T08:10:25;93832.69;;;19.43;37.24
7768;BME280;3928;42.626;23.382;2023-03-26T08:12:57;93842.78;;;19.63;35.92
7768;BME280;3928;42.626;23.382;2023-03-26T08:15:30;93799.06;;;19.54;35.16
7768;BME280;3928;42.626;23.382;2023-03-26T08:18:02;93842.97;;;19.89;34.91
7768;BME280;3928;42.626;23.382;2023-03-26T08:20:36;93847.09;;;20.21;35.29
7768;BME280;3928;42.626;23.382;2023-03-26T08:23:11;93838.16;;;20.25;34.10
7768;BME280;3928;42.626;23.382;2023-03-26T08:25:48;93850.72;;;20.61;34.57
7768;BME280;3928;42.626;23.382;2023-03-26T08:28:34;93845.34;;;20.77;32.73
7768;BME280;3928;42.626;23.382;2023-03-26T08:31:03;93817.31;;;20.81;33.55
7768;BME280;3928;42.626;23.382;2023-03-26T08:33:30;93841.13;;;21.16;31.97
7768;BME280;3928;42.626;23.382;2023-03-26T08:36:00;93847.06;;;21.32;30.44
7768;BME280;3928;42.626;23.382;2023-03-26T08:38:26;93847.34;;;21.00;29.61
7768;BME280;3928;42.626;23.382;2023-03-26T08:44:32;93857.94;;;21.51;30.36
7768;BME280;3928;42.626;23.382;2023-03-26T08:50:54;93851.03;;;20.69;30.53
7768;BME280;3928;42.626;23.382;2023-03-26T08:56:38;93838.03;;;20.96;30.42
7768;BME280;3928;42.626;23.382;2023-03-26T08:59:44;93841.69;;;21.21;29.76
7768;BME280;3928;42.626;23.382;2023-03-26T09:02:49;93835.91;;;21.16;29.47
7768;BME280;3928;42.626;23.382;2023-03-26T09:11:54;93842.31;;;21.77;28.93
7768;BME280;3928;42.626;23.382;2023-03-26T09:27:34;93836.25;;;23.13;25.27
7768;BME280;3928;42.626;23.382;2023-03-26T09:30:27;93836.25;;;23.13;26.44
7768;BME280;3928;42.626;23.382;2023-03-26T09:33:20;93830.38;;;23.22;25.54
7768;BME280;3928;42.626;23.382;2023-03-26T09:36:17;93823.84;;;23.63;25.80
7768;BME280;3928;42.626;23.382;2023-03-26T09:38:50;93828.81;;;24.01;24.72
7768;BME280;3928;42.626;23.382;2023-03-26T09:41:28;93817.72;;;23.98;25.19
7768;BME280;3928;42.626;23.382;2023-03-26T09:44:34;93826.81;;;24.16;24.91
7768;BME280;3928;42.626;23.382;2023-03-26T09:50:26;93829.94;;;23.63;24.36
7768;BME280;3928;42.626;23.382;2023-03-26T09:53:02;93822.47;;;23.70;24.40
7768;BME280;3928;42.626;23.382;2023-03-26T09:55:47;93826.97;;;23.79;24.54
7768;BME280;3928;42.626;23.382;2023-03-26T09:58:40;93819.97;;;23.56;24.77
7768;BME280;3928;42.626;23.382;2023-03-26T10:01:16;93817.31;;;22.73;26.32
7768;BME280;3928;42.626;23.382;2023-03-26T10:03:57;93820.81;;;22.11;27.02
7768;BME280;3928;42.626;23.382;2023-03-26T10:06:44;93810.69;;;22.07;27.13
7768;BME280;3928;42.626;23.382;2023-03-26T10:09:35;93809.41;;;21.87;27.18
7768;BME280;3928;42.626;23.382;2023-03-26T10:12:13;93802.72;;;22.58;28.05
7768;BME280;3928;42.626;23.382;2023-03-26T10:14:49;93809.25;;;23.13;26.13
7768;BME280;3928;42.626;23.382;2023-03-26T10:17:32;93793.66;;;22.14;26.73
7768;BME280;3928;42.626;23.382;2023-03-26T10:20:23;93789.88;;;21.80;27.66
7768;BME280;3928;42.626;23.382;2023-03-26T10:22:59;93787.38;;;21.91;27.94
7768;BME280;3928;42.626;23.382;2023-03-26T10:25:49;93782.06;;;21.67;27.86
7768;BME280;3928;42.626;23.382;2023-03-26T10:28:52;93776.50;;;22.46;26.40
7768;BME280;3928;42.626;23.382;2023-03-26T10:31:42;93771.63;;;23.38;25.63
7768;BME280;3928;42.626;23.382;2023-03-26T10:34:25;93764.63;;;23.49;25.18
7768;BME280;3928;42.626;23.382;2023-03-26T10:37:03;93757.25;;;23.19;24.13
7768;BME280;3928;42.626;23.382;2023-03-26T10:40:04;93750.75;;;23.25;24.19
7768;BME280;3928;42.626;23.382;2023-03-26T10:42:54;93751.06;;;23.09;23.72
7768;BME280;3928;42.626;23.382;2023-03-26T10:45:32;93745.19;;;23.41;23.54
7768;BME280;3928;42.626;23.382;2023-03-26T10:51:08;93746.75;;;23.43;23.39
7768;BME280;3928;42.626;23.382;2023-03-26T10:53:48;93749.78;;;22.67;23.53
7768;BME280;3928;42.626;23.382;2023-03-26T10:56:20;93738.63;;;22.28;24.52
7768;BME280;3928;42.626;23.382;2023-03-26T10:58:48;93729.72;;;22.79;24.84
7768;BME280;3928;42.626;23.382;2023-03-26T11:01:21;93733.75;;;23.30;24.37
7768;BME280;3928;42.626;23.382;2023-03-26T11:03:50;93714.78;;;23.73;23.28
7768;BME280;3928;42.626;23.382;2023-03-26T11:06:30;93727.31;;;23.92;22.18
7768;BME280;3928;42.626;23.382;2023-03-26T11:09:11;93730.28;;;22.71;22.89
7768;BME280;3928;42.626;23.382;2023-03-26T11:11:46;93738.22;;;22.22;23.26
7768;BME280;3928;42.626;23.382;2023-03-26T11:14:20;93722.66;;;22.44;22.91
7768;BME280;3928;42.626;23.382;2023-03-26T11:16:57;93716.22;;;22.85;24.21
7768;BME280;3928;42.626;23.382;2023-03-26T11:19:31;93715.13;;;23.57;22.97
7768;BME280;3928;42.626;23.382;2023-03-26T11:22:11;93725.28;;;24.18;21.66
7768;BME280;3928;42.626;23.382;2023-03-26T11:25:07;93711.31;;;24.83;22.09
7768;BME280;3928;42.626;23.382;2023-03-26T11:27:49;93719.38;;;24.59;20.67
7768;BME280;3928;42.626;23.382;2023-03-26T11:30:29;93710.78;;;24.57;19.95
7768;BME280;3928;42.626;23.382;2023-03-26T11:33:00;93702.28;;;24.76;19.93
7768;BME280;3928;42.626;23.382;2023-03-26T11:35:30;93704.50;;;23.48;20.44
7768;BME280;3928;42.626;23.382;2023-03-26T11:38:02;93698.88;;;22.71;21.25
7768;BME280;3928;42.626;23.382;2023-03-26T11:40:32;93707.75;;;22.57;21.43
7768;BME280;3928;42.626;23.382;2023-03-26T11:43:02;93712.50;;;23.00;21.14
7768;BME280;3928;42.626;23.382;2023-03-26T11:45:31;93689.84;;;22.88;21.50
7768;BME280;3928;42.626;23.382;2023-03-26T11:48:03;93674.03;;;23.47;21.57
7768;BME280;3928;42.626;23.382;2023-03-26T11:50:36;93664.13;;;24.29;20.80
7768;BME280;3928;42.626;23.382;2023-03-26T11:53:11;93666.63;;;24.94;19.47
7768;BME280;3928;42.626;23.382;2023-03-26T11:55:45;93665.81;;;24.62;20.80
7768;BME280;3928;42.626;23.382;2023-03-26T11:58:23;93653.16;;;25.20;21.18
7768;BME280;3928;42.626;23.382;2023-03-26T12:00:53;93625.31;;;25.69;19.49
7768;BME280;3928;42.626;23.382;2023-03-26T12:03:20;93649.63;;;26.22;20.07
7768;BME280;3928;42.626;23.382;2023-03-26T12:05:48;93621.28;;;26.74;18.83
7768;BME280;3928;42.626;23.382;2023-03-26T12:08:25;93633.06;;;26.99;18.93
7768;BME280;3928;42.626;23.382;2023-03-26T12:11:04;93624.38;;;27.55;18.58
7768;BME280;3928;42.626;23.382;2023-03-26T12:13:36;93624.47;;;28.10;17.98
7768;BME280;3928;42.626;23.382;2023-03-26T12:16:08;93621.75;;;28.19;17.56
7768;BME280;3928;42.626;23.382;2023-03-26T12:18:36;93618.06;;;28.58;18.04
7768;BME280;3928;42.626;23.382;2023-03-26T12:21:06;93610.94;;;28.40;17.48
7768;BME280;3928;42.626;23.382;2023-03-26T12:23:43;93611.31;;;28.28;17.60
7768;BME280;3928;42.626;23.382;2023-03-26T12:26:14;93601.22;;;28.41;17.51
7768;BME280;3928;42.626;23.382;2023-03-26T12:28:46;93604.56;;;28.96;18.01
7768;BME280;3928;42.626;23.382;2023-03-26T12:31:14;93589.88;;;29.46;15.99
7768;BME280;3928;42.626;23.382;2023-03-26T12:33:47;93585.50;;;29.54;16.83
7768;BME280;3928;42.626;23.382;2023-03-26T12:36:20;93591.41;;;29.48;15.96
7768;BME280;3928;42.626;23.382;2023-03-26T12:38:50;93587.56;;;29.17;15.80
7768;BME280;3928;42.626;23.382;2023-03-26T12:41:18;93580.59;;;28.90;16.58
7768;BME280;3928;42.626;23.382;2023-03-26T12:43:47;93574.78;;;29.12;16.35
7768;BME280;3928;42.626;23.382;2023-03-26T12:46:25;93558.41;;;29.34;16.24
7768;BME280;3928;42.626;23.382;2023-03-26T12:48:56;93569.63;;;29.88;15.97
7768;BME280;3928;42.626;23.382;2023-03-26T12:51:38;93568.84;;;29.96;15.52
7768;BME280;3928;42.626;23.382;2023-03-26T12:54:35;93567.91;;;29.79;15.78
7768;BME280;3928;42.626;23.382;2023-03-26T12:57:18;93570.28;;;29.56;15.10
7768;BME280;3928;42.626;23.382;2023-03-26T13:00:02;93554.59;;;29.03;15.21
7768;BME280;3928;42.626;23.382;2023-03-26T13:02:49;93553.53;;;29.22;15.82
7768;BME280;3928;42.626;23.382;2023-03-26T13:05:38;93548.53;;;29.70;14.47
7768;BME280;3928;42.626;23.382;2023-03-26T13:08:36;93566.03;;;29.63;14.50
7768;BME280;3928;42.626;23.382;2023-03-26T13:11:19;93531.47;;;29.57;13.14
7768;BME280;3928;42.626;23.382;2023-03-26T13:13:57;93548.66;;;29.35;13.27
7768;BME280;3928;42.626;23.382;2023-03-26T13:16:34;93557.28;;;29.63;14.28
7768;BME280;3928;42.626;23.382;2023-03-26T13:19:09;93540.88;;;28.64;14.93
7768;BME280;3928;42.626;23.382;2023-03-26T13:21:49;93525.44;;;28.33;15.67
7768;BME280;3928;42.626;23.382;2023-03-26T13:24:29;93544.00;;;28.59;15.58
7768;BME280;3928;42.626;23.382;2023-03-26T13:27:10;93543.25;;;28.04;14.84
7768;BME280;3928;42.626;23.382;2023-03-26T13:29:45;93504.94;;;27.82;14.62
7768;BME280;3928;42.626;23.382;2023-03-26T13:32:26;93540.81;;;27.92;14.52
7768;BME280;3928;42.626;23.382;2023-03-26T13:35:07;93551.88;;;27.41;15.30
7768;BME280;3928;42.626;23.382;2023-03-26T13:37:44;93541.56;;;27.20;14.86
7768;BME280;3928;42.626;23.382;2023-03-26T13:40:22;93550.47;;;27.00;14.01
7768;BME280;3928;42.626;23.382;2023-03-26T13:43:10;93536.88;;;27.14;15.03
7768;BME280;3928;42.626;23.382;2023-03-26T13:45:48;93540.13;;;27.35;14.28
7768;BME280;3928;42.626;23.382;2023-03-26T13:48:20;93538.13;;;27.10;14.64
7768;BME280;3928;42.626;23.382;2023-03-26T13:50:56;93536.22;;;27.02;15.02
7768;BME280;3928;42.626;23.382;2023-03-26T13:53:30;93512.16;;;26.49;15.04
7768;BME280;3928;42.626;23.382;2023-03-26T13:55:59;93518.09;;;26.32;15.06
7768;BME280;3928;42.626;23.382;2023-03-26T13:58:33;93533.59;;;26.25;15.61
7768;BME280;3928;42.626;23.382;2023-03-26T14:01:05;93536.91;;;26.85;15.79
7768;BME280;3928;42.626;23.382;2023-03-26T14:03:40;93534.47;;;27.21;14.92
7768;BME280;3928;42.626;23.382;2023-03-26T14:06:19;93528.94;;;27.24;14.33
7768;BME280;3928;42.626;23.382;2023-03-26T14:08:52;93531.63;;;27.42;14.08
7768;BME280;3928;42.626;23.382;2023-03-26T14:11:30;93521.84;;;27.61;14.49
7768;BME280;3928;42.626;23.382;2023-03-26T14:14:05;93516.66;;;27.97;13.77
7768;BME280;3928;42.626;23.382;2023-03-26T14:16:38;93520.22;;;27.51;13.85
7768;BME280;3928;42.626;23.382;2023-03-26T14:19:22;93511.44;;;27.60;14.68